sensor_id;sensor_type;location;lat;lon;timestamp;temperature;humidity
1592;DHT22;789;51.612;7.510;2023-02-01T00:01:51;6.60;1.00
1592;DHT22;789;51.612;7.510;2023-02-01T00:04:19;6.60;1.00
1592;DHT22;789;51.612;7.510;2023-02-01T00:06:49;6.60;1.00
1592;DHT22;789;51.612;7.510;2023-02-01T00:09:16;6.70;1.00
1592;DHT22;789;51.612;7.510;2023-02-01T00:11:44;6.70;1.00
1592;DHT22;789;51.612;7.510;2023-02-01T00:14:11;6.80;1.00
1592;DHT22;789;51.612;7.510;2023-02-01T00:16:39;6.80;1.00
1592;DHT22;789;51.612;7.510;2023-02-01T00:19:07;6.80;1.00
1592;DHT22;789;51.612;7.510;2023-02-01T00:21:34;6.90;1.00
1592;DHT22;789;51.612;7.510;2023-02-01T00:24:03;6.80;1.00
1592;DHT22;789;51.612;7.510;2023-02-01T00:26:32;6.90;1.00
1592;DHT22;789;51.612;7.510;2023-02-01T00:29:04;6.90;1.00
1592;DHT22;789;51.612;7.510;2023-02-01T00:31:33;6.90;1.00
1592;DHT22;789;51.612;7.510;2023-02-01T00:34:00;6.90;1.00
1592;DHT22;789;51.612;7.510;2023-02-01T00:36:29;6.90;1.00
1592;DHT22;789;51.612;7.510;2023-02-01T00:38:56;6.90;1.00
1592;DHT22;789;51.612;7.510;2023-02-01T00:41:27;6.90;1.00
1592;DHT22;789;51.612;7.510;2023-02-01T00:43:54;6.90;1.00
1592;DHT22;789;51.612;7.510;2023-02-01T00:46:21;6.90;1.00
1592;DHT22;789;51.612;7.510;2023-02-01T00:48:48;6.90;1.00
1592;DHT22;789;51.612;7.510;2023-02-01T00:51:20;6.90;1.00
1592;DHT22;789;51.612;7.510;2023-02-01T00:53:49;6.90;1.00
1592;DHT22;789;51.612;7.510;2023-02-01T00:56:28;7.00;1.00
1592;DHT22;789;51.612;7.510;2023-02-01T00:58:56;7.00;1.00
1592;DHT22;789;51.612;7.510;2023-02-01T01:01:26;7.00;1.00
1592;DHT22;789;51.612;7.510;2023-02-01T01:03:55;7.00;1.00
1592;DHT22;789;51.612;7.510;2023-02-01T01:06:24;7.00;1.00
1592;DHT22;789;51.612;7.510;2023-02-01T01:08:51;7.00;1.00
1592;DHT22;789;51.612;7.510;2023-02-01T01:11:21;7.00;1.00
1592;DHT22;789;51.612;7.510;2023-02-01T01:13:50;7.10;1.00
1592;DHT22;789;51.612;7.510;2023-02-01T01:16:18;7.10;1.00
1592;DHT22;789;51.612;7.510;2023-02-01T01:18:47;7.10;1.00
1592;DHT22;789;51.612;7.510;2023-02-01T01:21:15;7.10;1.00
1592;DHT22;789;51.612;7.510;2023-02-01T01:23:43;7.10;1.00
1592;DHT22;789;51.612;7.510;2023-02-01T01:26:13;7.30;1.00
1592;DHT22;789;51.612;7.510;2023-02-01T01:28:41;7.10;1.00
1592;DHT22;789;51.612;7.510;2023-02-01T01:31:09;7.10;1.00
1592;DHT22;789;51.612;7.510;2023-02-01T01:33:36;7.10;1.00
1592;DHT22;789;51.612;7.510;2023-02-01T01:36:04;7.10;1.00
1592;DHT22;789;51.612;7.510;2023-02-01T01:38:31;7.10;1.00
1592;DHT22;789;51.612;7.510;2023-02-01T01:40:58;7.10;1.00
1592;DHT22;789;51.612;7.510;2023-02-01T01:43:48;7.10;1.00
1592;DHT22;789;51.612;7.510;2023-02-01T01:46:16;7.10;1.00
1592;DHT22;789;51.612;7.510;2023-02-01T01:48:44;7.10;1.00
1592;DHT22;789;51.612;7.510;2023-02-01T01:51:12;7.10;1.00
1592;DHT22;789;51.612;7.510;2023-02-01T01:53:44;7.10;1.00
1592;DHT22;789;51.612;7.510;2023-02-01T01:56:12;7.00;1.00
1592;DHT22;789;51.612;7.510;2023-02-01T01:58:39;7.00;1.00
1592;DHT22;789;51.612;7.510;2023-02-01T02:01:07;7.00;1.00
1592;DHT22;789;51.612;7.510;2023-02-01T02:03:41;7.00;1.00
1592;DHT22;789;51.612;7.510;2023-02-01T02:06:18;7.10;1.00
1592;DHT22;789;51.612;7.510;2023-02-01T02:08:48;7.10;1.00
1592;DHT22;789;51.612;7.510;2023-02-01T02:11:16;7.10;1.00
1592;DHT22;789;51.612;7.510;2023-02-01T02:13:46;7.10;1.00
1592;DHT22;789;51.612;7.510;2023-02-01T02:16:24;7.00;1.00
1592;DHT22;789;51.612;7.510;2023-02-01T02:19:04;7.00;1.00
1592;DHT22;789;51.612;7.510;2023-02-01T02:21:52;7.00;1.00
1592;DHT22;789;51.612;7.510;2023-02-01T02:27:32;7.00;1.00
1592;DHT22;789;51.612;7.510;2023-02-01T02:34:02;7.10;1.00
1592;DHT22;789;51.612;7.510;2023-02-01T02:36:39;7.10;1.00
1592;DHT22;789;51.612;7.510;2023-02-01T02:39:17;7.10;1.00
1592;DHT22;789;51.612;7.510;2023-02-01T02:41:52;7.10;1.00
1592;DHT22;789;51.612;7.510;2023-02-01T02:44:45;7.10;1.00
1592;DHT22;789;51.612;7.510;2023-02-01T02:47:34;7.10;1.00
1592;DHT22;789;51.612;7.510;2023-02-01T02:50:11;7.10;1.00
1592;DHT22;789;51.612;7.510;2023-02-01T02:53:02;7.10;1.00
1592;DHT22;789;51.612;7.510;2023-02-01T02:55:49;7.10;1.00
1592;DHT22;789;51.612;7.510;2023-02-01T02:58:17;7.10;1.00
1592;DHT22;789;51.612;7.510;2023-02-01T03:01:03;7.10;1.00
1592;DHT22;789;51.612;7.510;2023-02-01T03:03:48;7.10;1.00
1592;DHT22;789;51.612;7.510;2023-02-01T03:06:36;7.10;1.00
1592;DHT22;789;51.612;7.510;2023-02-01T03:09:08;7.10;1.00
1592;DHT22;789;51.612;7.510;2023-02-01T03:11:37;7.00;1.00
1592;DHT22;789;51.612;7.510;2023-02-01T03:14:24;7.00;1.00
1592;DHT22;789;51.612;7.510;2023-02-01T03:16:57;7.00;1.00
1592;DHT22;789;51.612;7.510;2023-02-01T03:19:28;7.00;1.00
1592;DHT22;789;51.612;7.510;2023-02-01T03:22:00;7.00;1.00
1592;DHT22;789;51.612;7.510;2023-02-01T03:24:33;7.00;1.00
1592;DHT22;789;51.612;7.510;2023-02-01T03:27:05;7.00;1.00
1592;DHT22;789;51.612;7.510;2023-02-01T03:29:44;7.00;1.00
1592;DHT22;789;51.612;7.510;2023-02-01T03:32:12;7.10;1.00
1592;DHT22;789;51.612;7.510;2023-02-01T03:34:39;7.00;1.00
1592;DHT22;789;51.612;7.510;2023-02-01T03:37:09;7.00;1.00
1592;DHT22;789;51.612;7.510;2023-02-01T03:39:41;7.00;1.00
1592;DHT22;789;51.612;7.510;2023-02-01T03:42:16;7.00;1.00
1592;DHT22;789;51.612;7.510;2023-02-01T03:44:49;7.00;1.00
1592;DHT22;789;51.612;7.510;2023-02-01T03:47:19;7.00;1.00
1592;DHT22;789;51.612;7.510;2023-02-01T03:49:51;7.00;1.00
1592;DHT22;789;51.612;7.510;2023-02-01T03:52:22;7.00;1.00
1592;DHT22;789;51.612;7.510;2023-02-01T03:54:52;7.10;1.00
1592;DHT22;789;51.612;7.510;2023-02-01T03:57:23;7.10;1.00
1592;DHT22;789;51.612;7.510;2023-02-01T03:59:51;7.10;1.00
1592;DHT22;789;51.612;7.510;2023-02-01T04:02:18;7.00;1.00
1592;DHT22;789;51.612;7.510;2023-02-01T04:04:45;7.00;1.00
1592;DHT22;789;51.612;7.510;2023-02-01T04:07:11;7.00;1.00
1592;DHT22;789;51.612;7.510;2023-02-01T04:09:39;7.00;1.00
1592;DHT22;789;51.612;7.510;2023-02-01T04:12:06;7.00;1.00
1592;DHT22;789;51.612;7.510;2023-02-01T04:14:33;7.00;1.00
1592;DHT22;789;51.612;7.510;2023-02-01T04:16:59;7.00;1.00
1592;DHT22;789;51.612;7.510;2023-02-01T04:19:26;7.00;1.00
1592;DHT22;789;51.612;7.510;2023-02-01T04:21:53;7.00;1.00
1592;DHT22;789;51.612;7.510;2023-02-01T04:24:20;7.00;1.00
1592;DHT22;789;51.612;7.510;2023-02-01T04:26:48;7.00;1.00
1592;DHT22;789;51.612;7.510;2023-02-01T04:29:14;7.00;1.00
1592;DHT22;789;51.612;7.510;2023-02-01T04:31:41;7.00;1.00
1592;DHT22;789;51.612;7.510;2023-02-01T04:34:08;7.00;1.00
1592;DHT22;789;51.612;7.510;2023-02-01T04:36:34;7.10;1.00
1592;DHT22;789;51.612;7.510;2023-02-01T04:39:01;7.10;1.00
1592;DHT22;789;51.612;7.510;2023-02-01T04:41:28;7.10;1.00
1592;DHT22;789;51.612;7.510;2023-02-01T04:43:56;7.10;1.00
1592;DHT22;789;51.612;7.510;2023-02-01T04:46:23;7.10;1.00
1592;DHT22;789;51.612;7.510;2023-02-01T04:48:50;7.00;1.00
1592;DHT22;789;51.612;7.510;2023-02-01T04:51:16;6.90;1.00
1592;DHT22;789;51.612;7.510;2023-02-01T04:53:43;6.90;1.00
1592;DHT22;789;51.612;7.510;2023-02-01T04:56:10;6.90;1.00
1592;DHT22;789;51.612;7.510;2023-02-01T04:58:37;7.00;1.00
1592;DHT22;789;51.612;7.510;2023-02-01T05:01:05;7.00;1.00
1592;DHT22;789;51.612;7.510;2023-02-01T05:03:34;7.00;1.00
1592;DHT22;789;51.612;7.510;2023-02-01T05:06:01;7.00;1.00
1592;DHT22;789;51.612;7.510;2023-02-01T05:08:29;7.00;1.00
1592;DHT22;789;51.612;7.510;2023-02-01T05:10:56;7.00;1.00
1592;DHT22;789;51.612;7.510;2023-02-01T05:13:24;7.00;1.00
1592;DHT22;789;51.612;7.510;2023-02-01T05:16:09;7.00;1.00
1592;DHT22;789;51.612;7.510;2023-02-01T05:18:36;7.00;1.00
1592;DHT22;789;51.612;7.510;2023-02-01T05:21:03;7.00;1.00
1592;DHT22;789;51.612;7.510;2023-02-01T05:23:29;7.00;1.00
1592;DHT22;789;51.612;7.510;2023-02-01T05:25:58;7.00;1.00
1592;DHT22;789;51.612;7.510;2023-02-01T05:28:26;7.00;1.00
1592;DHT22;789;51.612;7.510;2023-02-01T05:30:53;7.00;1.00
1592;DHT22;789;51.612;7.510;2023-02-01T05:33:21;7.00;1.00
1592;DHT22;789;51.612;7.510;2023-02-01T05:35:47;7.00;1.00
1592;DHT22;789;51.612;7.510;2023-02-01T05:38:15;7.00;1.00
1592;DHT22;789;51.612;7.510;2023-02-01T05:40:42;7.00;1.00
1592;DHT22;789;51.612;7.510;2023-02-01T05:43:14;7.00;1.00
1592;DHT22;789;51.612;7.510;2023-02-01T05:45:41;7.00;1.00
1592;DHT22;789;51.612;7.510;2023-02-01T05:48:08;7.00;1.00
1592;DHT22;789;51.612;7.510;2023-02-01T05:50:36;6.90;1.00
1592;DHT22;789;51.612;7.510;2023-02-01T05:53:02;6.90;1.00
1592;DHT22;789;51.612;7.510;2023-02-01T05:55:29;7.00;1.00
1592;DHT22;789;51.612;7.510;2023-02-01T05:57:56;7.00;1.00
1592;DHT22;789;51.612;7.510;2023-02-01T06:00:23;6.90;1.00
1592;DHT22;789;51.612;7.510;2023-02-01T06:02:50;6.90;1.00
1592;DHT22;789;51.612;7.510;2023-02-01T06:05:16;6.90;1.00
1592;DHT22;789;51.612;7.510;2023-02-01T06:07:45;6.80;1.00
1592;DHT22;789;51.612;7.510;2023-02-01T06:10:12;6.80;1.00
1592;DHT22;789;51.612;7.510;2023-02-01T06:12:39;6.90;1.00
1592;DHT22;789;51.612;7.510;2023-02-01T06:15:07;6.90;1.00
1592;DHT22;789;51.612;7.510;2023-02-01T06:17:34;6.90;1.00
1592;DHT22;789;51.612;7.510;2023-02-01T06:20:00;7.00;1.00
1592;DHT22;789;51.612;7.510;2023-02-01T06:22:27;7.00;1.00
1592;DHT22;789;51.612;7.510;2023-02-01T06:24:55;7.00;1.00
1592;DHT22;789;51.612;7.510;2023-02-01T06:27:23;7.00;1.00
1592;DHT22;789;51.612;7.510;2023-02-01T06:29:50;7.00;1.00
1592;DHT22;789;51.612;7.510;2023-02-01T06:32:17;7.00;1.00
1592;DHT22;789;51.612;7.510;2023-02-01T06:34:43;7.00;1.00
1592;DHT22;789;51.612;7.510;2023-02-01T06:37:10;7.00;1.00
1592;DHT22;789;51.612;7.510;2023-02-01T06:39:37;7.00;1.00
1592;DHT22;789;51.612;7.510;2023-02-01T06:42:05;6.90;1.00
1592;DHT22;789;51.612;7.510;2023-02-01T06:44:32;6.90;1.00
1592;DHT22;789;51.612;7.510;2023-02-01T06:46:58;6.80;1.00
1592;DHT22;789;51.612;7.510;2023-02-01T06:49:25;6.80;1.00
1592;DHT22;789;51.612;7.510;2023-02-01T06:51:52;6.80;1.00
1592;DHT22;789;51.612;7.510;2023-02-01T06:54:18;6.80;1.00
1592;DHT22;789;51.612;7.510;2023-02-01T06:56:45;6.80;1.00
1592;DHT22;789;51.612;7.510;2023-02-01T06:59:13;6.80;1.00
1592;DHT22;789;51.612;7.510;2023-02-01T07:01:40;6.80;1.00
1592;DHT22;789;51.612;7.510;2023-02-01T07:04:06;6.80;1.00
1592;DHT22;789;51.612;7.510;2023-02-01T07:06:35;6.70;1.00
1592;DHT22;789;51.612;7.510;2023-02-01T07:09:02;6.70;1.00
1592;DHT22;789;51.612;7.510;2023-02-01T07:11:29;6.70;1.00
1592;DHT22;789;51.612;7.510;2023-02-01T07:13:56;6.80;1.00
1592;DHT22;789;51.612;7.510;2023-02-01T07:16:24;6.80;1.00
1592;DHT22;789;51.612;7.510;2023-02-01T07:18:52;6.80;1.00
1592;DHT22;789;51.612;7.510;2023-02-01T07:21:18;6.80;1.00
1592;DHT22;789;51.612;7.510;2023-02-01T07:23:45;6.90;1.00
1592;DHT22;789;51.612;7.510;2023-02-01T07:26:13;6.90;1.00
1592;DHT22;789;51.612;7.510;2023-02-01T07:28:42;6.90;1.00
1592;DHT22;789;51.612;7.510;2023-02-01T07:31:10;7.00;1.00
1592;DHT22;789;51.612;7.510;2023-02-01T07:33:38;7.00;1.00
1592;DHT22;789;51.612;7.510;2023-02-01T07:36:06;7.00;1.00
1592;DHT22;789;51.612;7.510;2023-02-01T07:38:33;7.10;1.00
1592;DHT22;789;51.612;7.510;2023-02-01T07:41:02;7.10;1.00
1592;DHT22;789;51.612;7.510;2023-02-01T07:43:29;7.10;1.00
1592;DHT22;789;51.612;7.510;2023-02-01T07:45:56;7.10;1.00
1592;DHT22;789;51.612;7.510;2023-02-01T07:48:24;7.10;1.00
1592;DHT22;789;51.612;7.510;2023-02-01T07:50:58;7.10;1.00
1592;DHT22;789;51.612;7.510;2023-02-01T07:53:25;7.10;1.00
1592;DHT22;789;51.612;7.510;2023-02-01T07:55:52;7.10;1.00
1592;DHT22;789;51.612;7.510;2023-02-01T07:58:18;7.10;1.00
1592;DHT22;789;51.612;7.510;2023-02-01T08:00:45;7.10;1.00
1592;DHT22;789;51.612;7.510;2023-02-01T08:03:29;7.10;1.00
1592;DHT22;789;51.612;7.510;2023-02-01T08:05:57;7.10;1.00
1592;DHT22;789;51.612;7.510;2023-02-01T08:08:24;7.10;1.00
1592;DHT22;789;51.612;7.510;2023-02-01T08:10:50;7.20;1.00
1592;DHT22;789;51.612;7.510;2023-02-01T08:13:19;7.20;1.00
1592;DHT22;789;51.612;7.510;2023-02-01T08:15:46;7.20;1.00
1592;DHT22;789;51.612;7.510;2023-02-01T08:18:13;7.20;1.00
1592;DHT22;789;51.612;7.510;2023-02-01T08:20:41;7.30;1.00
1592;DHT22;789;51.612;7.510;2023-02-01T08:23:12;7.20;1.00
1592;DHT22;789;51.612;7.510;2023-02-01T08:25:39;7.30;1.00
1592;DHT22;789;51.612;7.510;2023-02-01T08:28:06;7.20;1.00
1592;DHT22;789;51.612;7.510;2023-02-01T08:30:33;7.20;1.00
1592;DHT22;789;51.612;7.510;2023-02-01T08:33:00;7.20;1.00
1592;DHT22;789;51.612;7.510;2023-02-01T08:35:26;7.20;1.00
1592;DHT22;789;51.612;7.510;2023-02-01T08:37:53;7.40;1.00
1592;DHT22;789;51.612;7.510;2023-02-01T08:40:21;7.20;1.00
1592;DHT22;789;51.612;7.510;2023-02-01T08:42:48;7.30;1.00
1592;DHT22;789;51.612;7.510;2023-02-01T08:45:17;7.30;1.00
1592;DHT22;789;51.612;7.510;2023-02-01T08:47:45;7.30;1.00
1592;DHT22;789;51.612;7.510;2023-02-01T08:50:13;7.30;1.00
1592;DHT22;789;51.612;7.510;2023-02-01T08:52:39;7.30;1.00
1592;DHT22;789;51.612;7.510;2023-02-01T08:55:07;7.30;1.00
1592;DHT22;789;51.612;7.510;2023-02-01T08:57:35;7.40;1.00
1592;DHT22;789;51.612;7.510;2023-02-01T09:00:03;7.40;1.00
1592;DHT22;789;51.612;7.510;2023-02-01T09:02:31;7.40;1.00
1592;DHT22;789;51.612;7.510;2023-02-01T09:04:57;7.40;1.00
1592;DHT22;789;51.612;7.510;2023-02-01T09:07:24;7.40;1.00
1592;DHT22;789;51.612;7.510;2023-02-01T09:09:51;7.50;1.00
1592;DHT22;789;51.612;7.510;2023-02-01T09:12:20;7.40;1.00
1592;DHT22;789;51.612;7.510;2023-02-01T09:14:48;7.40;1.00
1592;DHT22;789;51.612;7.510;2023-02-01T09:17:15;7.40;1.00
1592;DHT22;789;51.612;7.510;2023-02-01T09:19:41;7.40;1.00
1592;DHT22;789;51.612;7.510;2023-02-01T09:22:08;7.40;1.00
1592;DHT22;789;51.612;7.510;2023-02-01T09:24:34;7.40;1.00
1592;DHT22;789;51.612;7.510;2023-02-01T09:27:01;7.50;1.00
1592;DHT22;789;51.612;7.510;2023-02-01T09:29:28;7.50;1.00
1592;DHT22;789;51.612;7.510;2023-02-01T09:31:56;7.50;1.00
1592;DHT22;789;51.612;7.510;2023-02-01T09:34:23;7.60;1.00
1592;DHT22;789;51.612;7.510;2023-02-01T09:36:50;7.60;1.00
1592;DHT22;789;51.612;7.510;2023-02-01T09:39:17;7.70;1.00
1592;DHT22;789;51.612;7.510;2023-02-01T09:41:51;7.80;1.00
1592;DHT22;789;51.612;7.510;2023-02-01T09:44:37;7.70;1.00
1592;DHT22;789;51.612;7.510;2023-02-01T09:47:11;7.70;1.00
1592;DHT22;789;51.612;7.510;2023-02-01T09:49:45;7.70;1.00
1592;DHT22;789;51.612;7.510;2023-02-01T09:52:16;7.70;1.00
1592;DHT22;789;51.612;7.510;2023-02-01T09:54:49;7.70;1.00
1592;DHT22;789;51.612;7.510;2023-02-01T09:57:23;7.60;1.00
1592;DHT22;789;51.612;7.510;2023-02-01T09:59:54;7.70;1.00
1592;DHT22;789;51.612;7.510;2023-02-01T10:02:26;7.60;1.00
1592;DHT22;789;51.612;7.510;2023-02-01T10:04:55;7.60;1.00
1592;DHT22;789;51.612;7.510;2023-02-01T10:07:29;7.70;1.00
1592;DHT22;789;51.612;7.510;2023-02-01T10:10:01;7.70;1.00
1592;DHT22;789;51.612;7.510;2023-02-01T10:12:50;7.70;1.00
1592;DHT22;789;51.612;7.510;2023-02-01T10:15:35;7.70;1.00
1592;DHT22;789;51.612;7.510;2023-02-01T10:18:20;7.70;1.00
1592;DHT22;789;51.612;7.510;2023-02-01T10:20:57;7.70;1.00
1592;DHT22;789;51.612;7.510;2023-02-01T10:23:56;7.70;1.00
1592;DHT22;789;51.612;7.510;2023-02-01T10:26:26;7.80;1.00
1592;DHT22;789;51.612;7.510;2023-02-01T10:28:56;7.80;1.00
1592;DHT22;789;51.612;7.510;2023-02-01T10:31:26;7.80;1.00
1592;DHT22;789;51.612;7.510;2023-02-01T10:33:58;7.90;1.00
1592;DHT22;789;51.612;7.510;2023-02-01T10:36:28;7.80;1.00
1592;DHT22;789;51.612;7.510;2023-02-01T10:38:57;7.80;1.00
1592;DHT22;789;51.612;7.510;2023-02-01T10:41:30;7.80;1.00
1592;DHT22;789;51.612;7.510;2023-02-01T10:43:58;7.80;1.00
1592;DHT22;789;51.612;7.510;2023-02-01T10:46:26;7.80;1.00
1592;DHT22;789;51.612;7.510;2023-02-01T10:48:55;7.80;1.00
1592;DHT22;789;51.612;7.510;2023-02-01T10:51:27;7.80;1.00
1592;DHT22;789;51.612;7.510;2023-02-01T10:53:57;7.80;1.00
1592;DHT22;789;51.612;7.510;2023-02-01T10:56:25;7.80;1.00
1592;DHT22;789;51.612;7.510;2023-02-01T10:59:00;7.80;1.00
1592;DHT22;789;51.612;7.510;2023-02-01T11:01:30;7.80;1.00
1592;DHT22;789;51.612;7.510;2023-02-01T11:03:58;7.80;1.00
1592;DHT22;789;51.612;7.510;2023-02-01T11:06:30;7.80;1.00
1592;DHT22;789;51.612;7.510;2023-02-01T11:08:58;7.80;1.00
1592;DHT22;789;51.612;7.510;2023-02-01T11:11:26;7.80;1.00
1592;DHT22;789;51.612;7.510;2023-02-01T11:13:57;7.80;1.00
1592;DHT22;789;51.612;7.510;2023-02-01T11:16:34;7.80;1.00
1592;DHT22;789;51.612;7.510;2023-02-01T11:19:01;7.80;1.00
1592;DHT22;789;51.612;7.510;2023-02-01T11:21:30;7.80;1.00
1592;DHT22;789;51.612;7.510;2023-02-01T11:24:04;7.80;1.00
1592;DHT22;789;51.612;7.510;2023-02-01T11:26:55;7.80;1.00
1592;DHT22;789;51.612;7.510;2023-02-01T11:29:22;7.80;1.00
1592;DHT22;789;51.612;7.510;2023-02-01T11:31:55;7.80;1.00
1592;DHT22;789;51.612;7.510;2023-02-01T11:34:25;7.80;1.00
1592;DHT22;789;51.612;7.510;2023-02-01T11:36:55;7.80;1.00
1592;DHT22;789;51.612;7.510;2023-02-01T11:39:26;7.80;1.00
1592;DHT22;789;51.612;7.510;2023-02-01T11:41:58;7.80;1.00
1592;DHT22;789;51.612;7.510;2023-02-01T11:44:33;7.90;1.00
1592;DHT22;789;51.612;7.510;2023-02-01T11:47:23;8.00;1.00
1592;DHT22;789;51.612;7.510;2023-02-01T11:49:52;8.10;1.00
1592;DHT22;789;51.612;7.510;2023-02-01T11:52:37;8.10;1.00
1592;DHT22;789;51.612;7.510;2023-02-01T11:55:23;8.10;1.00
1592;DHT22;789;51.612;7.510;2023-02-01T11:58:06;8.10;1.00
1592;DHT22;789;51.612;7.510;2023-02-01T12:00:50;8.10;1.00
1592;DHT22;789;51.612;7.510;2023-02-01T12:03:47;8.10;1.00
1592;DHT22;789;51.612;7.510;2023-02-01T12:06:22;8.10;1.00
1592;DHT22;789;51.612;7.510;2023-02-01T12:09:12;8.10;1.00
1592;DHT22;789;51.612;7.510;2023-02-01T12:11:51;8.00;1.00
1592;DHT22;789;51.612;7.510;2023-02-01T12:14:30;8.00;1.00
1592;DHT22;789;51.612;7.510;2023-02-01T12:17:17;7.90;1.00
1592;DHT22;789;51.612;7.510;2023-02-01T12:20:01;7.90;1.00
1592;DHT22;789;51.612;7.510;2023-02-01T12:22:37;7.70;1.00
1592;DHT22;789;51.612;7.510;2023-02-01T12:25:41;7.60;1.00
1592;DHT22;789;51.612;7.510;2023-02-01T12:28:25;7.60;1.00
1592;DHT22;789;51.612;7.510;2023-02-01T12:34:00;7.50;1.00
1592;DHT22;789;51.612;7.510;2023-02-01T12:36:39;7.50;1.00
1592;DHT22;789;51.612;7.510;2023-02-01T12:39:14;7.50;1.00
1592;DHT22;789;51.612;7.510;2023-02-01T12:41:54;7.50;1.00
1592;DHT22;789;51.612;7.510;2023-02-01T12:44:37;7.50;1.00
1592;DHT22;789;51.612;7.510;2023-02-01T12:47:12;7.50;1.00
1592;DHT22;789;51.612;7.510;2023-02-01T12:49:53;7.50;1.00
1592;DHT22;789;51.612;7.510;2023-02-01T12:52:26;7.50;1.00
1592;DHT22;789;51.612;7.510;2023-02-01T12:54:59;7.50;1.00
1592;DHT22;789;51.612;7.510;2023-02-01T12:57:32;7.60;1.00
1592;DHT22;789;51.612;7.510;2023-02-01T13:00:07;7.70;1.00
1592;DHT22;789;51.612;7.510;2023-02-01T13:02:41;7.60;1.00
1592;DHT22;789;51.612;7.510;2023-02-01T13:05:15;7.70;1.00
1592;DHT22;789;51.612;7.510;2023-02-01T13:07:47;7.70;1.00
1592;DHT22;789;51.612;7.510;2023-02-01T13:10:18;7.70;1.00
1592;DHT22;789;51.612;7.510;2023-02-01T13:12:53;7.70;1.00
1592;DHT22;789;51.612;7.510;2023-02-01T13:15:24;7.70;1.00
1592;DHT22;789;51.612;7.510;2023-02-01T13:17:56;7.60;1.00
1592;DHT22;789;51.612;7.510;2023-02-01T13:20:28;7.60;1.00
1592;DHT22;789;51.612;7.510;2023-02-01T13:23:00;7.60;1.00
1592;DHT22;789;51.612;7.510;2023-02-01T13:25:34;7.70;1.00
1592;DHT22;789;51.612;7.510;2023-02-01T13:28:06;7.60;1.00
1592;DHT22;789;51.612;7.510;2023-02-01T13:30:47;7.60;1.00
1592;DHT22;789;51.612;7.510;2023-02-01T13:33:32;7.70;1.00
1592;DHT22;789;51.612;7.510;2023-02-01T13:36:29;7.70;1.00
1592;DHT22;789;51.612;7.510;2023-02-01T13:39:14;7.80;1.00
1592;DHT22;789;51.612;7.510;2023-02-01T13:41:52;7.80;1.00
1592;DHT22;789;51.612;7.510;2023-02-01T13:44:26;7.80;1.00
1592;DHT22;789;51.612;7.510;2023-02-01T13:46:57;7.80;1.00
1592;DHT22;789;51.612;7.510;2023-02-01T13:49:27;7.90;1.00
1592;DHT22;789;51.612;7.510;2023-02-01T13:51:56;7.90;1.00
1592;DHT22;789;51.612;7.510;2023-02-01T13:54:31;7.90;1.00
1592;DHT22;789;51.612;7.510;2023-02-01T13:56:59;8.00;1.00
1592;DHT22;789;51.612;7.510;2023-02-01T13:59:50;8.00;1.00
1592;DHT22;789;51.612;7.510;2023-02-01T14:08:38;8.20;1.00
1592;DHT22;789;51.612;7.510;2023-02-01T14:11:05;8.20;1.00
1592;DHT22;789;51.612;7.510;2023-02-01T14:13:33;8.30;1.00
1592;DHT22;789;51.612;7.510;2023-02-01T14:16:16;8.30;1.00
1592;DHT22;789;51.612;7.510;2023-02-01T14:18:56;8.40;1.00
1592;DHT22;789;51.612;7.510;2023-02-01T14:21:27;8.50;1.00
1592;DHT22;789;51.612;7.510;2023-02-01T14:23:58;8.50;1.00
1592;DHT22;789;51.612;7.510;2023-02-01T14:26:27;8.50;1.00
1592;DHT22;789;51.612;7.510;2023-02-01T14:29:21;8.50;1.00
1592;DHT22;789;51.612;7.510;2023-02-01T14:31:58;8.50;1.00
1592;DHT22;789;51.612;7.510;2023-02-01T14:34:34;8.50;1.00
1592;DHT22;789;51.612;7.510;2023-02-01T14:37:05;8.40;1.00
1592;DHT22;789;51.612;7.510;2023-02-01T14:39:37;8.30;1.00
1592;DHT22;789;51.612;7.510;2023-02-01T14:42:18;8.30;1.00
1592;DHT22;789;51.612;7.510;2023-02-01T14:44:47;8.20;1.00
1592;DHT22;789;51.612;7.510;2023-02-01T14:47:31;8.20;1.00
1592;DHT22;789;51.612;7.510;2023-02-01T14:52:46;8.30;1.00
1592;DHT22;789;51.612;7.510;2023-02-01T14:55:16;8.40;1.00
1592;DHT22;789;51.612;7.510;2023-02-01T14:57:47;8.40;1.00
1592;DHT22;789;51.612;7.510;2023-02-01T15:00:20;8.40;1.00
1592;DHT22;789;51.612;7.510;2023-02-01T15:02:50;8.40;1.00
1592;DHT22;789;51.612;7.510;2023-02-01T15:05:25;8.40;1.00
1592;DHT22;789;51.612;7.510;2023-02-01T15:07:52;8.30;1.00
1592;DHT22;789;51.612;7.510;2023-02-01T15:10:21;8.30;1.00
1592;DHT22;789;51.612;7.510;2023-02-01T15:12:48;8.30;1.00
1592;DHT22;789;51.612;7.510;2023-02-01T15:15:18;8.30;1.00
1592;DHT22;789;51.612;7.510;2023-02-01T15:17:52;8.30;1.00
1592;DHT22;789;51.612;7.510;2023-02-01T15:20:21;8.20;1.00
1592;DHT22;789;51.612;7.510;2023-02-01T15:22:56;8.30;1.00
1592;DHT22;789;51.612;7.510;2023-02-01T15:25:25;8.30;1.00
1592;DHT22;789;51.612;7.510;2023-02-01T15:27:52;8.40;1.00
1592;DHT22;789;51.612;7.510;2023-02-01T15:30:21;8.30;1.00
1592;DHT22;789;51.612;7.510;2023-02-01T15:32:49;8.40;1.00
1592;DHT22;789;51.612;7.510;2023-02-01T15:35:38;8.40;1.00
1592;DHT22;789;51.612;7.510;2023-02-01T15:38:37;8.30;1.00
1592;DHT22;789;51.612;7.510;2023-02-01T15:41:07;8.40;1.00
1592;DHT22;789;51.612;7.510;2023-02-01T15:43:38;8.30;1.00
1592;DHT22;789;51.612;7.510;2023-02-01T15:46:11;8.30;1.00
1592;DHT22;789;51.612;7.510;2023-02-01T15:48:43;8.30;1.00
1592;DHT22;789;51.612;7.510;2023-02-01T15:51:18;8.30;1.00
1592;DHT22;789;51.612;7.510;2023-02-01T15:53:51;8.30;1.00
1592;DHT22;789;51.612;7.510;2023-02-01T15:56:24;8.30;1.00
1592;DHT22;789;51.612;7.510;2023-02-01T15:58:53;8.30;1.00
1592;DHT22;789;51.612;7.510;2023-02-01T16:01:21;8.40;1.00
1592;DHT22;789;51.612;7.510;2023-02-01T16:03:49;8.40;1.00
1592;DHT22;789;51.612;7.510;2023-02-01T16:06:29;8.30;1.00
1592;DHT22;789;51.612;7.510;2023-02-01T16:09:02;8.30;1.00
1592;DHT22;789;51.612;7.510;2023-02-01T16:11:31;8.30;1.00
1592;DHT22;789;51.612;7.510;2023-02-01T16:13:58;8.20;1.00
1592;DHT22;789;51.612;7.510;2023-02-01T16:16:25;8.20;1.00
1592;DHT22;789;51.612;7.510;2023-02-01T16:18:52;8.20;1.00
1592;DHT22;789;51.612;7.510;2023-02-01T16:21:19;8.20;1.00
1592;DHT22;789;51.612;7.510;2023-02-01T16:23:50;8.10;1.00
1592;DHT22;789;51.612;7.510;2023-02-01T16:26:18;8.10;1.00
1592;DHT22;789;51.612;7.510;2023-02-01T16:28:45;8.10;1.00
1592;DHT22;789;51.612;7.510;2023-02-01T16:31:13;8.20;1.00
1592;DHT22;789;51.612;7.510;2023-02-01T16:33:46;8.10;1.00
1592;DHT22;789;51.612;7.510;2023-02-01T16:36:13;8.10;1.00
1592;DHT22;789;51.612;7.510;2023-02-01T16:38:39;8.10;1.00
1592;DHT22;789;51.612;7.510;2023-02-01T16:41:12;8.10;1.00
1592;DHT22;789;51.612;7.510;2023-02-01T16:43:38;8.10;1.00
1592;DHT22;789;51.612;7.510;2023-02-01T16:46:05;8.10;1.00
1592;DHT22;789;51.612;7.510;2023-02-01T16:48:37;8.10;1.00
1592;DHT22;789;51.612;7.510;2023-02-01T16:51:09;7.90;1.00
1592;DHT22;789;51.612;7.510;2023-02-01T16:53:37;7.80;1.00
1592;DHT22;789;51.612;7.510;2023-02-01T16:56:13;7.80;1.00
1592;DHT22;789;51.612;7.510;2023-02-01T16:58:41;7.70;1.00
1592;DHT22;789;51.612;7.510;2023-02-01T17:01:09;7.60;1.00
1592;DHT22;789;51.612;7.510;2023-02-01T17:03:36;7.60;1.00
1592;DHT22;789;51.612;7.510;2023-02-01T17:06:03;7.50;1.00
1592;DHT22;789;51.612;7.510;2023-02-01T17:08:33;7.40;1.00
1592;DHT22;789;51.612;7.510;2023-02-01T17:11:01;7.30;1.00
1592;DHT22;789;51.612;7.510;2023-02-01T17:13:29;7.20;1.00
1592;DHT22;789;51.612;7.510;2023-02-01T17:15:58;7.10;1.00
1592;DHT22;789;51.612;7.510;2023-02-01T17:18:27;7.10;1.00
1592;DHT22;789;51.612;7.510;2023-02-01T17:20:56;7.00;1.00
1592;DHT22;789;51.612;7.510;2023-02-01T17:23:23;7.00;1.00
1592;DHT22;789;51.612;7.510;2023-02-01T17:25:50;7.00;1.00
1592;DHT22;789;51.612;7.510;2023-02-01T17:28:16;7.00;1.00
1592;DHT22;789;51.612;7.510;2023-02-01T17:30:44;7.00;1.00
1592;DHT22;789;51.612;7.510;2023-02-01T17:33:20;7.00;1.00
1592;DHT22;789;51.612;7.510;2023-02-01T17:35:47;6.90;1.00
1592;DHT22;789;51.612;7.510;2023-02-01T17:38:13;6.90;1.00